Time;durP1;ratioP1;P1;durP2;ratioP2;P2;SDS_P1;SDS_P2;PMS_P1;PMS_P2;Temp;Humidity;BMP_temperature;BMP_pressure;BME280_temperature;BME280_humidity;BME280_pressure;Samples;Min_cycle;Max_cycle;Signal;HPM_P1;HPM_P2
2022/05/02 00:01:40;;;;;;;47.70;39.80;;;;;;;10.50;73.92;99127.70;105050;1271;61374;-76
2022/05/02 00:04:07;;;;;;;46.30;39.40;;;;;;;10.49;74.01;99126.52;105209;1271;61401;-75
2022/05/02 00:06:34;;;;;;;44.70;38.40;;;;;;;10.47;74.02;99124.02;105072;1271;61283;-75
2022/05/02 00:09:00;;;;;;;46.30;38.40;;;;;;;10.43;74.32;99125.14;105094;1271;61316;-76
2022/05/02 00:11:26;;;;;;;47.40;40.40;;;;;;;10.38;74.65;99128.10;105062;1271;61599;-75
2022/05/02 00:13:52;;;;;;;50.60;40.70;;;;;;;10.32;74.65;99128.83;105102;1271;61380;-75
2022/05/02 00:16:18;;;;;;;54.20;42.60;;;;;;;10.30;74.43;99130.21;105121;1271;61340;-74
2022/05/02 00:18:44;;;;;;;51.60;42.50;;;;;;;10.30;74.45;99128.98;105109;1271;61341;-74
2022/05/02 00:21:10;;;;;;;56.40;43.30;;;;;;;10.32;74.62;99128.15;105171;1271;61410;-75
2022/05/02 00:23:36;;;;;;;55.30;42.90;;;;;;;10.31;74.65;99126.22;105101;1271;61402;-75
2022/05/02 00:26:02;;;;;;;51.70;42.00;;;;;;;10.30;74.59;99125.24;105108;1271;61340;-76
2022/05/02 00:28:29;;;;;;;52.80;41.80;;;;;;;10.29;74.89;99124.98;104930;1271;61396;-74
2022/05/02 00:30:55;;;;;;;50.60;42.60;;;;;;;10.25;75.03;99122.14;105083;1271;61380;-74
2022/05/02 00:33:21;;;;;;;51.20;41.70;;;;;;;10.22;75.11;99123.05;105112;1271;61891;-74
2022/05/02 00:35:47;;;;;;;50.70;41.40;;;;;;;10.20;75.47;99129.07;105086;1271;61324;-74
2022/05/02 00:38:13;;;;;;;54.50;43.60;;;;;;;10.15;75.76;99127.79;105089;1271;61310;-75
2022/05/02 00:40:39;;;;;;;53.60;44.70;;;;;;;10.12;75.98;99127.76;105053;1271;61295;-75
2022/05/02 00:43:05;;;;;;;55.60;46.80;;;;;;;10.11;76.17;99131.38;104911;1271;61449;-75
2022/05/02 00:45:37;;;;;;;56.70;44.40;;;;;;;10.10;76.23;99133.73;104853;1272;61330;-75
2022/05/02 00:48:04;;;;;;;51.50;43.70;;;;;;;10.10;76.17;99129.64;104827;1271;61316;-75
2022/05/02 00:50:36;;;;;;;51.80;43.10;;;;;;;10.11;76.43;99130.16;104574;1274;63040;-76
2022/05/02 00:53:08;;;;;;;55.30;46.00;;;;;;;10.11;76.57;99129.77;105008;1271;75411;-74
2022/05/02 00:55:35;;;;;;;51.80;42.70;;;;;;;10.11;76.53;99131.56;105221;1271;69260;-74
2022/05/02 00:58:02;;;;;;;54.80;45.40;;;;;;;10.10;76.79;99125.95;105019;1271;73320;-74
2022/05/02 01:00:30;;;;;;;48.80;42.80;;;;;;;10.07;77.30;99124.89;104921;1271;61390;-74
2022/05/02 01:02:57;;;;;;;49.10;43.20;;;;;;;10.02;77.39;99121.16;104877;1272;61518;-75
2022/05/02 01:05:24;;;;;;;51.90;43.90;;;;;;;9.98;77.64;99119.61;105024;1271;76248;-74
2022/05/02 01:07:50;;;;;;;51.50;42.00;;;;;;;9.96;77.86;99119.77;105089;1271;61304;-76
2022/05/02 01:10:18;;;;;;;48.20;42.10;;;;;;;9.91;78.03;99123.05;105036;1271;61304;-76
2022/05/02 01:12:46;;;;;;;49.60;42.30;;;;;;;9.87;78.43;99120.48;105116;1271;61365;-76
2022/05/02 01:15:14;;;;;;;51.60;42.70;;;;;;;9.83;78.42;99121.02;105082;1271;61852;-75
2022/05/02 01:17:41;;;;;;;48.40;43.10;;;;;;;9.81;78.60;99120.98;104994;1271;75441;-74
2022/05/02 01:20:09;;;;;;;56.30;47.10;;;;;;;9.79;78.87;99118.46;104985;1271;69940;-74
2022/05/02 01:22:35;;;;;;;54.50;46.40;;;;;;;9.79;79.00;99116.54;105168;1271;73785;-75
2022/05/02 01:25:02;;;;;;;55.70;47.30;;;;;;;9.79;79.17;99115.79;105076;1271;61342;-75
2022/05/02 01:27:28;;;;;;;54.50;46.80;;;;;;;9.80;79.12;99115.02;105086;1271;61934;-76
2022/05/02 01:29:54;;;;;;;51.70;45.10;;;;;;;9.80;79.24;99113.61;104916;1271;61380;-75
2022/05/02 01:32:20;;;;;;;55.30;47.50;;;;;;;9.80;79.45;99112.56;104983;1271;61358;-76
2022/05/02 01:34:46;;;;;;;61.50;51.90;;;;;;;9.78;79.70;99115.35;105032;1271;61413;-74
2022/05/02 01:37:14;;;;;;;61.00;52.30;;;;;;;9.77;80.16;99113.09;105066;1271;61345;-75
2022/05/02 01:39:41;;;;;;;61.60;52.30;;;;;;;9.76;80.38;99115.29;105123;1271;61303;-73
2022/05/02 01:42:09;;;;;;;60.20;51.40;;;;;;;9.74;80.29;99114.91;105094;1271;61310;-75
2022/05/02 01:44:36;;;;;;;60.40;50.70;;;;;;;9.70;80.38;99116.55;105109;1271;69391;-76
2022/05/02 01:47:04;;;;;;;57.30;48.60;;;;;;;9.65;80.66;99115.21;105063;1271;74453;-75
2022/05/02 01:49:30;;;;;;;58.10;50.80;;;;;;;9.61;80.84;99117.41;104908;1272;61187;-74
2022/05/02 01:51:58;;;;;;;63.50;53.40;;;;;;;9.58;81.55;99117.98;104846;1271;61323;-75
2022/05/02 01:54:25;;;;;;;62.30;51.20;;;;;;;9.54;81.31;99120.02;104839;1271;75021;-75
2022/05/02 01:56:51;;;;;;;58.40;50.00;;;;;;;9.51;81.76;99120.37;105138;1271;70500;-75
2022/05/02 01:59:17;;;;;;;60.10;49.80;;;;;;;9.45;81.69;99123.89;105203;1271;61390;-75
2022/05/02 02:01:43;;;;;;;59.50;49.10;;;;;;;9.41;81.82;99122.73;105211;1271;61388;-76
2022/05/02 02:06:54;;;;;;;53.80;47.90;;;;;;;9.36;81.90;99119.86;105091;1271;76163;-75
2022/05/02 02:09:20;;;;;;;55.40;48.20;;;;;;;9.32;82.08;99118.48;104877;1271;61415;-75
2022/05/02 02:11:46;;;;;;;57.00;50.80;;;;;;;9.29;82.09;99121.53;105114;1271;61391;-75
2022/05/02 02:14:12;;;;;;;59.70;51.60;;;;;;;9.25;82.27;99121.39;105119;1271;61400;-74
2022/05/02 02:16:38;;;;;;;61.40;53.10;;;;;;;9.21;82.39;99122.52;105118;1271;61341;-76
2022/05/02 02:19:04;;;;;;;60.40;53.90;;;;;;;9.17;82.61;99121.48;104999;1271;61484;-74
2022/05/02 02:21:31;;;;;;;61.30;52.40;;;;;;;9.16;82.62;99121.40;105123;1271;61385;-76
2022/05/02 02:23:58;;;;;;;58.20;51.60;;;;;;;9.14;82.76;99121.70;105206;1271;61406;-75
2022/05/02 02:26:24;;;;;;;57.10;51.10;;;;;;;9.12;83.07;99116.65;105130;1271;61387;-75
2022/05/02 02:28:50;;;;;;;61.00;53.90;;;;;;;9.10;83.47;99116.80;105103;1271;61396;-74
2022/05/02 02:31:16;;;;;;;64.80;55.30;;;;;;;9.03;83.31;99113.64;105113;1271;61386;-75
2022/05/02 02:33:42;;;;;;;54.90;48.90;;;;;;;8.97;83.55;99110.61;105065;1271;74239;-74
2022/05/02 02:36:07;;;;;;;54.20;48.20;;;;;;;8.90;83.48;99108.94;105082;1271;61438;-75
2022/05/02 02:38:34;;;;;;;60.20;53.80;;;;;;;8.83;83.58;99106.85;105091;1271;61298;-76
2022/05/02 02:41:00;;;;;;;58.20;51.80;;;;;;;8.76;84.02;99103.70;105142;1271;61431;-75
2022/05/02 02:43:25;;;;;;;58.20;51.80;;;;;;;8.71;84.27;99104.67;105100;1271;61282;-75
2022/05/02 02:45:52;;;;;;;57.70;51.80;;;;;;;8.63;84.68;99104.48;105086;1271;61912;-75
2022/05/02 02:48:18;;;;;;;57.30;51.00;;;;;;;8.52;84.83;99104.90;105095;1271;61300;-75
2022/05/02 02:50:43;;;;;;;59.60;52.60;;;;;;;8.48;85.28;99102.31;105152;1271;61393;-75
2022/05/02 02:53:09;;;;;;;67.70;57.20;;;;;;;8.45;85.48;99100.88;104823;1271;68798;-76
2022/05/02 02:55:35;;;;;;;62.50;55.40;;;;;;;8.46;86.11;99098.33;105082;1271;61261;-75
2022/05/02 02:58:02;;;;;;;63.30;55.10;;;;;;;8.47;86.63;99096.33;105083;1271;61396;-74
2022/05/02 03:00:29;;;;;;;68.40;59.40;;;;;;;8.47;86.75;99093.46;105099;1271;61323;-74
2022/05/02 03:02:56;;;;;;;72.30;60.90;;;;;;;8.51;87.13;99093.60;105117;1271;75342;-74
2022/05/02 03:08:09;;;;;;;75.30;65.50;;;;;;;8.62;87.59;99095.13;105129;1271;73438;-75
2022/05/02 03:10:36;;;;;;;71.10;60.40;;;;;;;8.68;88.21;99096.91;105036;1271;61384;-74
2022/05/02 03:13:02;;;;;;;68.90;58.90;;;;;;;8.75;88.31;99103.05;104906;1271;61608;-74
2022/05/02 03:15:29;;;;;;;107.70;96.10;;;;;;;8.78;88.32;99099.15;104961;1271;198691;-76
2022/05/02 03:17:55;;;;;;;102.90;91.90;;;;;;;8.82;88.25;99097.88;104917;1271;69818;-75
2022/05/02 03:20:21;;;;;;;102.40;91.60;;;;;;;8.85;88.33;99097.55;104863;1271;61356;-75
2022/05/02 03:22:47;;;;;;;109.10;94.90;;;;;;;8.85;88.46;99091.30;105109;1271;61496;-74
2022/05/02 03:25:13;;;;;;;78.20;69.50;;;;;;;8.86;88.37;99096.36;105148;1271;61380;-74
2022/05/02 03:27:39;;;;;;;99.10;87.20;;;;;;;8.88;88.39;99099.25;105144;1271;61364;-74
2022/05/02 03:30:07;;;;;;;104.20;92.20;;;;;;;8.88;88.40;99100.53;105133;1271;61387;-76
2022/05/02 03:32:33;;;;;;;109.50;94.70;;;;;;;8.88;88.42;99101.41;105133;1271;61345;-74
2022/05/02 03:35:00;;;;;;;97.20;86.30;;;;;;;8.88;88.51;99095.59;105080;1271;61416;-75
2022/05/02 03:37:25;;;;;;;84.20;75.20;;;;;;;8.88;88.55;99099.83;105132;1271;61304;-75
2022/05/02 03:39:52;;;;;;;80.00;71.20;;;;;;;8.89;88.56;99101.17;105076;1271;61393;-74
2022/05/02 03:42:17;;;;;;;74.90;66.70;;;;;;;8.90;88.66;99097.36;105158;1271;61400;-74
2022/05/02 03:44:43;;;;;;;74.10;65.30;;;;;;;8.93;88.62;99099.33;105074;1271;61419;-74
2022/05/02 03:47:10;;;;;;;72.60;64.30;;;;;;;8.97;88.63;99100.35;105171;1271;61394;-76
2022/05/02 03:49:36;;;;;;;71.90;63.10;;;;;;;9.17;88.63;99099.73;105140;1271;75403;-75
2022/05/02 03:52:02;;;;;;;70.90;63.40;;;;;;;9.55;87.94;99103.48;105123;1271;61333;-75
2022/05/02 03:54:28;;;;;;;72.10;64.50;;;;;;;9.89;87.24;99105.25;104896;1271;61363;-75
2022/05/02 03:56:54;;;;;;;68.70;61.50;;;;;;;10.21;86.40;99102.38;105120;1271;61397;-76
2022/05/02 03:59:20;;;;;;;69.80;62.40;;;;;;;10.43;85.62;99101.14;105153;1271;61260;-75
2022/05/02 04:01:46;;;;;;;67.20;60.30;;;;;;;10.69;84.96;99097.70;105095;1271;61293;-75
2022/05/02 04:04:12;;;;;;;69.80;62.40;;;;;;;11.03;84.14;99095.05;105148;1271;61393;-76
2022/05/02 04:06:38;;;;;;;67.60;60.40;;;;;;;11.38;83.22;99091.61;104950;1271;61371;-74
2022/05/02 04:09:04;;;;;;;65.20;58.50;;;;;;;11.71;82.21;99088.63;104893;1272;61397;-75
2022/05/02 04:11:30;;;;;;;62.80;56.20;;;;;;;11.95;81.43;99090.55;104919;1271;61425;-76
2022/05/02 04:13:56;;;;;;;62.40;55.90;;;;;;;12.07;80.85;99091.95;105112;1268;69268;-76
2022/05/02 04:16:22;;;;;;;60.00;53.80;;;;;;;12.19;80.19;99086.52;105124;1271;61388;-74
2022/05/02 04:18:48;;;;;;;60.00;53.60;;;;;;;12.28;79.82;99088.33;105112;1271;61419;-75
2022/05/02 04:21:14;;;;;;;57.80;52.00;;;;;;;12.21;79.55;99092.96;105148;1271;61333;-75
2022/05/02 04:23:40;;;;;;;59.10;53.00;;;;;;;12.57;78.79;99096.57;105120;1271;61393;-76
2022/05/02 04:26:06;;;;;;;58.70;52.70;;;;;;;12.92;77.52;99095.75;105118;1271;61293;-75
2022/05/02 04:28:34;;;;;;;59.30;53.60;;;;;;;13.17;76.44;99094.38;105128;1271;61387;-76
2022/05/02 04:31:00;;;;;;;58.50;52.70;;;;;;;13.42;75.69;99095.19;104862;1271;61297;-75
2022/05/02 04:33:26;;;;;;;59.10;53.30;;;;;;;13.34;75.51;99093.34;105122;1271;61345;-76
2022/05/02 04:35:53;;;;;;;58.50;52.40;;;;;;;13.02;75.51;99095.01;105102;1271;61332;-75
2022/05/02 04:38:19;;;;;;;59.60;53.80;;;;;;;12.80;75.61;99098.58;105094;1271;61397;-76
2022/05/02 04:40:45;;;;;;;58.30;52.30;;;;;;;12.84;75.32;99098.34;105109;1271;61364;-74
2022/05/02 04:43:11;;;;;;;55.20;49.80;;;;;;;13.14;74.57;99100.00;105096;1271;61421;-76
2022/05/02 04:45:37;;;;;;;57.10;51.30;;;;;;;13.46;73.75;99097.05;105197;1271;61310;-75
2022/05/02 04:48:03;;;;;;;55.00;49.20;;;;;;;13.75;73.08;99096.58;105139;1271;69351;-76
2022/05/02 04:50:29;;;;;;;53.60;48.00;;;;;;;14.03;72.49;99097.77;105061;1271;61319;-75
2022/05/02 04:52:56;;;;;;;55.20;49.50;;;;;;;14.28;71.80;99096.96;105083;1271;61309;-75
2022/05/02 04:55:22;;;;;;;53.50;47.80;;;;;;;14.51;70.89;99095.48;104852;1271;61241;-75
2022/05/02 04:57:48;;;;;;;54.50;49.00;;;;;;;14.62;70.43;99097.45;105135;1271;61364;-74
2022/05/02 05:00:16;;;;;;;53.30;47.90;;;;;;;14.55;69.32;99099.66;105091;1271;61302;-75
2022/05/02 05:02:42;;;;;;;52.60;47.20;;;;;;;14.41;69.21;99102.87;104845;1271;61633;-75
2022/05/02 05:05:09;;;;;;;53.20;47.60;;;;;;;14.43;68.76;99099.88;105012;1271;61413;-75
2022/05/02 05:07:37;;;;;;;53.80;48.50;;;;;;;14.44;68.53;99100.87;105147;1271;61276;-75
2022/05/02 05:10:06;;;;;;;53.50;48.20;;;;;;;14.44;68.23;99099.41;105110;1271;75231;-76
2022/05/02 05:12:47;;;;;;;53.90;48.40;;;;;;;14.48;67.83;99103.91;104659;1271;69302;-75
2022/05/02 05:18:37;;;;;;;52.00;46.70;;;;;;;14.91;66.72;99103.17;105114;1271;61397;-76
2022/05/02 05:21:07;;;;;;;50.20;45.30;;;;;;;15.06;66.32;99103.48;105132;1271;61291;-74
2022/05/02 05:23:48;;;;;;;51.00;45.20;;;;;;;15.16;65.91;99098.52;105136;1271;75703;-76
2022/05/02 05:26:41;;;;;;;47.30;42.60;;;;;;;15.44;64.99;99094.58;105169;1271;68916;-78
2022/05/02 05:29:36;;;;;;;45.00;40.60;;;;;;;15.73;64.83;99092.98;104917;1271;73361;-76
2022/05/02 05:32:33;;;;;;;42.30;38.20;;;;;;;16.07;63.73;99088.38;104701;1276;61199;-76
2022/05/02 05:35:08;;;;;;;40.50;36.40;;;;;;;16.45;62.97;99083.91;104690;1277;62043;-76
2022/05/02 05:38:01;;;;;;;40.90;36.70;;;;;;;16.74;61.85;99086.17;104835;1277;75604;-77
2022/05/02 05:40:38;;;;;;;37.80;34.10;;;;;;;17.06;60.95;99087.23;104659;1277;69370;-75
2022/05/02 05:43:21;;;;;;;36.00;32.60;;;;;;;17.19;59.51;99085.73;104620;1277;72802;-76
2022/05/02 05:46:18;;;;;;;36.40;32.50;;;;;;;17.15;58.71;99088.77;104610;1277;61391;-76
2022/05/02 05:48:56;;;;;;;35.80;32.30;;;;;;;17.07;58.76;99090.71;104661;1277;61333;-75
2022/05/02 05:51:22;;;;;;;33.20;29.70;;;;;;;17.01;58.55;99090.73;104655;1277;75132;-75
2022/05/02 05:54:12;;;;;;;29.40;26.40;;;;;;;16.94;58.44;99089.98;104636;1277;61929;-76
2022/05/02 05:56:38;;;;;;;32.20;29.00;;;;;;;16.99;57.83;99093.75;104621;1277;74400;-76
2022/05/02 05:59:27;;;;;;;33.20;29.80;;;;;;;17.18;57.34;99087.67;104598;1277;61275;-75
2022/05/02 06:01:58;;;;;;;32.30;29.20;;;;;;;17.54;56.77;99088.32;104649;1277;61883;-74
2022/05/02 06:04:26;;;;;;;33.10;29.90;;;;;;;17.78;56.30;99090.52;104591;1277;74689;-76
2022/05/02 06:06:54;;;;;;;27.80;25.20;;;;;;;18.06;55.51;99092.38;104575;1277;69357;-76
2022/05/02 06:09:21;;;;;;;27.90;25.20;;;;;;;18.29;54.50;99086.22;104820;1271;73430;-74
2022/05/02 06:11:49;;;;;;;27.60;24.80;;;;;;;18.45;53.95;99085.36;105133;1271;61322;-74
2022/05/02 06:14:15;;;;;;;27.00;24.30;;;;;;;18.57;53.25;99086.13;105155;1271;61368;-75
2022/05/02 06:19:33;;;;;;;26.20;23.60;;;;;;;18.77;52.86;99087.29;105132;1271;70534;-75
2022/05/02 06:22:02;;;;;;;28.40;25.60;;;;;;;18.96;52.57;99082.50;105127;1271;74544;-75
2022/05/02 06:24:31;;;;;;;25.70;23.20;;;;;;;19.16;51.91;99085.53;105143;1271;61292;-75
2022/05/02 06:26:59;;;;;;;24.20;21.70;;;;;;;19.26;51.04;99088.09;105124;1271;61685;-75
2022/05/02 06:29:25;;;;;;;24.20;21.10;;;;;;;19.25;50.59;99085.14;105159;1271;74267;-75
2022/05/02 06:31:54;;;;;;;24.80;22.20;;;;;;;19.28;50.27;99082.27;105173;1271;61298;-75
2022/05/02 06:34:27;;;;;;;24.40;21.90;;;;;;;19.35;49.97;99080.55;105125;1271;73629;-76
2022/05/02 06:37:05;;;;;;;22.80;20.50;;;;;;;19.46;49.84;99078.30;105185;1271;61460;-73
2022/05/02 06:40:08;;;;;;;24.00;21.50;;;;;;;19.54;49.72;99075.51;105179;1270;61392;-76
2022/05/02 06:42:45;;;;;;;24.00;21.70;;;;;;;19.68;49.44;99079.98;105167;1271;74939;-76
2022/05/02 06:45:37;;;;;;;22.10;19.90;;;;;;;19.75;48.70;99074.45;104893;1272;67345;-76
2022/05/02 06:48:22;;;;;;;21.60;19.60;;;;;;;19.74;48.31;99075.83;105118;1271;74299;-76
2022/05/02 06:50:55;;;;;;;22.60;20.30;;;;;;;19.74;48.46;99076.84;104839;1271;61183;-75
2022/05/02 06:53:27;;;;;;;20.70;18.60;;;;;;;19.74;47.99;99074.55;104936;1271;61445;-77
2022/05/02 06:56:01;;;;;;;20.90;18.80;;;;;;;19.71;47.51;99071.62;105137;1271;75186;-75
2022/05/02 06:58:35;;;;;;;22.20;20.00;;;;;;;19.48;47.44;99077.35;105190;1271;69369;-74
2022/05/02 07:01:08;;;;;;;23.40;20.90;;;;;;;19.27;47.96;99078.27;105155;1271;72381;-75
2022/05/02 07:04:02;;;;;;;20.80;18.80;;;;;;;18.98;48.66;99076.11;105137;1271;61554;-75
2022/05/02 07:06:56;;;;;;;21.00;18.80;;;;;;;18.66;48.90;99075.73;105139;1271;61821;-75
2022/05/02 07:09:30;;;;;;;20.60;18.60;;;;;;;18.27;48.90;99079.70;105157;1271;75180;-75
2022/05/02 07:12:16;;;;;;;18.90;17.10;;;;;;;18.04;49.47;99079.78;105070;1271;67652;-76
2022/05/02 07:15:00;;;;;;;17.60;15.90;;;;;;;17.85;49.65;99083.73;105115;1271;73293;-74
2022/05/02 07:17:41;;;;;;;17.00;15.40;;;;;;;17.65;49.74;99082.93;105109;1271;61282;-75
2022/05/02 07:20:21;;;;;;;16.70;15.00;;;;;;;17.56;49.79;99084.20;105124;1271;61361;-76
2022/05/02 07:23:13;;;;;;;19.10;17.30;;;;;;;17.41;49.33;99084.91;105116;1271;75480;-74
2022/05/02 07:25:45;;;;;;;18.90;16.90;;;;;;;17.34;49.73;99089.43;105140;1269;67967;-76
2022/05/02 07:28:36;;;;;;;20.20;18.10;;;;;;;17.37;50.14;99087.04;105202;1271;73228;-74
2022/05/02 07:31:02;;;;;;;18.10;16.30;;;;;;;17.46;50.01;99088.88;105130;1270;61339;-75
2022/05/02 07:33:36;;;;;;;19.40;17.40;;;;;;;17.53;50.05;99088.55;105123;1271;61281;-75
2022/05/02 07:36:04;;;;;;;18.60;16.70;;;;;;;17.61;50.17;99089.48;104811;1271;76298;-75
2022/05/02 07:38:35;;;;;;;20.60;18.30;;;;;;;17.74;50.59;99091.11;105119;1271;70143;-75
2022/05/02 07:41:23;;;;;;;17.40;15.80;;;;;;;17.95;50.29;99088.79;105131;1271;73348;-75
2022/05/02 07:43:52;;;;;;;19.20;16.20;;;;;;;18.07;49.96;99086.58;105122;1271;61255;-77
2022/05/02 07:46:27;;;;;;;17.80;16.10;;;;;;;18.15;49.87;99080.36;105160;1271;61369;-76
2022/05/02 07:48:56;;;;;;;15.70;14.10;;;;;;;18.32;49.37;99082.98;105193;1271;75469;-75
2022/05/02 07:51:23;;;;;;;17.50;15.60;;;;;;;18.43;48.51;99081.55;105140;1271;68244;-74
2022/05/02 07:53:50;;;;;;;15.10;13.60;;;;;;;18.49;47.03;99082.42;105145;1271;73333;-76
2022/05/02 07:56:17;;;;;;;16.80;15.10;;;;;;;18.54;46.81;99082.24;105197;1271;61277;-76
2022/05/02 07:58:46;;;;;;;17.60;15.80;;;;;;;18.63;46.37;99081.25;105153;1271;61322;-73
2022/05/02 08:01:17;;;;;;;17.00;15.10;;;;;;;18.62;45.91;99077.14;105042;1271;76377;-75
2022/05/02 08:03:44;;;;;;;16.00;14.40;;;;;;;18.66;45.93;99076.38;105235;1271;69231;-76
2022/05/02 08:06:25;;;;;;;16.70;15.10;;;;;;;18.82;46.23;99066.55;105120;1271;61366;-75
2022/05/02 08:09:18;;;;;;;17.70;15.90;;;;;;;18.97;45.30;99069.95;105124;1271;61238;-76
2022/05/02 08:12:00;;;;;;;17.10;14.30;;;;;;;19.02;45.19;99070.76;105139;1271;61931;-75
2022/05/02 08:14:38;;;;;;;14.90;13.50;;;;;;;19.20;45.96;99072.67;105144;1271;76279;-77
2022/05/02 08:17:30;;;;;;;16.90;15.10;;;;;;;19.42;45.20;99071.49;105020;1271;69537;-76
2022/05/02 08:20:23;;;;;;;16.80;15.20;;;;;;;19.58;44.34;99069.86;105026;1271;73514;-77
2022/05/02 08:28:53;;;;;;;19.20;15.10;;;;;;;19.62;42.07;99068.16;105066;1271;75366;-76
2022/05/02 08:31:41;;;;;;;17.60;14.20;;;;;;;19.50;42.43;99065.80;105151;1271;69380;-78
2022/05/02 08:34:26;;;;;;;13.80;11.20;;;;;;;19.57;42.27;99061.16;104910;1271;71307;-76
2022/05/02 08:37:15;;;;;;;14.00;12.30;;;;;;;19.71;41.38;99063.52;105109;1271;61338;-76
2022/05/02 08:40:16;;;;;;;11.60;9.70;;;;;;;19.82;41.10;99060.77;105110;1271;61880;-76
2022/05/02 08:43:12;;;;;;;10.30;8.30;;;;;;;19.91;39.96;99057.04;105135;1271;74385;-75
2022/05/02 08:45:44;;;;;;;12.10;9.20;;;;;;;20.05;39.74;99054.20;105150;1271;69255;-76
2022/05/02 08:48:38;;;;;;;7.70;6.90;;;;;;;20.21;39.91;99050.98;105197;1271;71753;-76
2022/05/02 08:51:46;;;;;;;6.90;6.40;;;;;;;20.44;38.70;99045.90;105161;1271;61500;-75
2022/05/02 08:54:36;;;;;;;6.10;5.50;;;;;;;20.59;37.70;99048.83;104579;1278;61385;-76
2022/05/02 08:57:29;;;;;;;6.90;6.10;;;;;;;20.68;37.72;99043.77;104545;1278;74884;-76
2022/05/02 09:00:22;;;;;;;8.10;5.70;;;;;;;20.85;36.85;99039.99;104489;1278;70251;-76
2022/05/02 09:03:13;;;;;;;6.40;5.90;;;;;;;20.97;36.04;99037.49;103955;1285;73449;-75
2022/05/02 09:05:51;;;;;;;6.90;5.70;;;;;;;21.10;36.15;99036.77;103976;1285;61323;-76
2022/05/02 09:08:35;;;;;;;8.60;7.60;;;;;;;21.24;35.89;99034.35;103886;1285;63034;-75
2022/05/02 09:11:08;;;;;;;6.70;6.10;;;;;;;21.41;35.61;99030.95;103883;1285;76489;-75
2022/05/02 09:13:54;;;;;;;7.10;6.40;;;;;;;21.55;35.47;99024.02;103958;1285;69410;-75
2022/05/02 09:16:44;;;;;;;7.40;5.80;;;;;;;21.77;35.48;99019.39;103853;1285;74227;-76
2022/05/02 09:19:49;;;;;;;6.20;5.70;;;;;;;21.90;34.91;99017.35;103912;1285;61378;-75
2022/05/02 09:22:40;;;;;;;6.10;5.50;;;;;;;22.07;34.69;99012.52;103879;1285;61308;-75
2022/05/02 09:25:11;;;;;;;4.80;4.30;;;;;;;22.10;33.75;99014.19;103865;1285;76201;-76
2022/05/02 09:27:49;;;;;;;6.90;4.80;;;;;;;22.22;34.64;99005.77;103909;1285;70355;-76
2022/05/02 09:30:48;;;;;;;6.40;5.80;;;;;;;22.46;33.89;99011.15;103922;1285;73401;-75
2022/05/02 09:33:26;;;;;;;7.60;5.20;;;;;;;22.45;33.53;99007.83;104408;1279;61325;-75
2022/05/02 09:35:54;;;;;;;9.30;5.30;;;;;;;22.54;33.31;99004.41;104437;1279;61395;-75
2022/05/02 09:38:29;;;;;;;5.50;4.90;;;;;;;22.64;33.77;99001.02;104476;1279;76313;-76
2022/05/02 09:41:00;;;;;;;6.40;5.80;;;;;;;22.79;33.26;99001.94;104994;1271;69657;-76
2022/05/02 09:49:58;;;;;;;6.00;5.40;;;;;;;23.34;33.68;98989.89;105172;1271;61427;-76
2022/05/02 09:52:46;;;;;;;6.80;5.50;;;;;;;23.40;33.52;98988.57;105132;1271;76334;-76
2022/05/02 09:58:31;;;;;;;7.30;6.30;;;;;;;23.09;31.76;98987.40;105152;1271;73281;-78
2022/05/02 10:01:08;;;;;;;5.10;4.60;;;;;;;23.08;31.77;98985.61;105141;1271;61288;-76
2022/05/02 10:03:37;;;;;;;6.30;5.10;;;;;;;23.08;31.27;98983.40;105034;1271;61891;-77
2022/05/02 10:06:23;;;;;;;5.40;5.00;;;;;;;22.99;31.05;98984.63;105174;1271;76259;-76
2022/05/02 10:08:55;;;;;;;6.20;5.30;;;;;;;22.90;30.89;98980.13;105189;1271;68715;-75
2022/05/02 10:11:21;;;;;;;6.20;5.50;;;;;;;22.98;30.33;98977.28;104891;1271;74309;-76
2022/05/02 10:14:08;;;;;;;6.30;5.20;;;;;;;23.00;30.13;98968.93;105156;1270;61397;-76
2022/05/02 10:16:50;;;;;;;6.50;5.90;;;;;;;23.05;29.57;98971.81;105129;1271;61898;-75
2022/05/02 10:19:38;;;;;;;8.80;6.60;;;;;;;22.95;30.25;98966.57;105162;1270;75358;-76
2022/05/02 10:22:29;;;;;;;6.40;5.70;;;;;;;23.03;30.60;98962.90;105126;1271;69311;-76
2022/05/02 10:25:05;;;;;;;8.40;5.60;;;;;;;23.15;29.65;98961.35;105141;1271;74532;-76
2022/05/02 10:28:01;;;;;;;6.20;5.50;;;;;;;23.10;29.78;98952.86;105103;1271;61274;-77
2022/05/02 10:30:42;;;;;;;7.20;6.00;;;;;;;23.21;29.77;98955.21;105155;1271;61458;-77
2022/05/02 10:33:13;;;;;;;8.00;6.90;;;;;;;23.30;29.81;98948.86;105186;1271;75232;-77
2022/05/02 10:35:44;;;;;;;6.70;6.10;;;;;;;23.50;30.17;98947.83;105239;1271;69158;-76
2022/05/02 10:38:32;;;;;;;10.30;6.50;;;;;;;23.66;30.63;98943.16;105185;1271;72306;-78
2022/05/02 10:41:11;;;;;;;6.70;6.10;;;;;;;23.72;30.73;98940.12;104944;1272;61271;-75
2022/05/02 10:43:44;;;;;;;6.40;5.70;;;;;;;23.58;29.90;98937.75;104927;1271;62260;-75
2022/05/02 10:46:12;;;;;;;6.90;5.80;;;;;;;23.41;30.24;98940.46;105145;1271;75205;-77
2022/05/02 10:48:49;;;;;;;7.10;6.40;;;;;;;23.32;30.17;98937.18;105192;1271;70272;-75
2022/05/02 10:51:35;;;;;;;7.30;5.70;;;;;;;23.20;30.14;98935.40;104842;1272;71808;-76
2022/05/02 10:54:07;;;;;;;7.60;6.20;;;;;;;23.07;30.16;98934.45;105134;1271;61304;-77
2022/05/02 10:56:35;;;;;;;6.00;5.40;;;;;;;22.87;29.95;98934.76;105122;1271;61981;-76
2022/05/02 10:59:04;;;;;;;6.30;5.50;;;;;;;22.79;30.42;98929.77;105209;1271;74357;-75
2022/05/02 11:02:13;;;;;;;6.30;5.80;;;;;;;22.72;31.45;98932.71;105183;1271;69346;-77
2022/05/02 11:05:00;;;;;;;5.90;5.40;;;;;;;22.63;31.26;98930.75;104506;1278;72825;-76
2022/05/02 11:07:38;;;;;;;7.70;6.10;;;;;;;22.52;31.04;98925.37;104489;1280;61274;-78
2022/05/02 11:10:10;;;;;;;7.60;6.90;;;;;;;22.42;31.07;98924.73;104535;1278;61895;-77
2022/05/02 11:12:41;;;;;;;9.50;7.20;;;;;;;22.31;31.14;98923.19;104546;1280;76398;-78
2022/05/02 11:15:14;;;;;;;7.00;5.90;;;;;;;22.34;31.29;98926.88;104544;1280;70169;-76
2022/05/02 11:18:04;;;;;;;7.70;6.60;;;;;;;22.57;31.02;98923.58;104564;1278;74337;-76
2022/05/02 11:20:42;;;;;;;7.00;5.60;;;;;;;22.91;31.31;98917.58;104596;1278;61182;-78
2022/05/02 11:23:27;;;;;;;7.10;6.40;;;;;;;23.26;31.67;98915.43;104523;1280;62338;-77
2022/05/02 11:26:11;;;;;;;6.80;6.10;;;;;;;23.59;31.20;98911.45;104519;1278;75203;-77
2022/05/02 11:28:48;;;;;;;8.00;6.90;;;;;;;23.91;30.55;98911.87;104529;1278;69279;-75
2022/05/02 11:31:30;;;;;;;5.90;5.30;;;;;;;24.22;30.51;98907.11;104478;1278;74295;-77
2022/05/02 11:34:37;;;;;;;6.70;6.00;;;;;;;24.55;29.86;98909.84;104459;1278;61314;-75
2022/05/02 11:37:06;;;;;;;6.70;5.90;;;;;;;24.70;29.09;98909.05;103847;1287;61300;-76
2022/05/02 11:39:49;;;;;;;6.20;5.70;;;;;;;24.67;29.00;98909.04;103816;1286;75412;-77
2022/05/02 11:42:18;;;;;;;7.20;6.30;;;;;;;24.82;28.87;98902.03;104052;1279;70213;-76
2022/05/02 11:44:58;;;;;;;7.60;6.90;;;;;;;24.76;27.54;98903.12;104419;1279;74521;-75
2022/05/02 11:47:53;;;;;;;7.70;5.80;;;;;;;24.62;27.89;98901.73;104451;1279;61358;-76
2022/05/02 11:50:24;;;;;;;6.30;5.70;;;;;;;24.66;27.75;98903.11;104124;1280;62243;-77
2022/05/02 11:52:56;;;;;;;5.90;5.30;;;;;;;24.73;28.00;98897.86;104451;1279;75432;-76
2022/05/02 11:55:28;;;;;;;5.90;5.40;;;;;;;24.85;28.07;98895.30;104269;1279;68049;-77
2022/05/02 11:58:02;;;;;;;8.50;5.90;;;;;;;24.94;27.91;98893.20;104455;1279;74381;-75
2022/05/02 12:00:33;;;;;;;6.50;5.90;;;;;;;25.00;27.71;98887.88;104451;1279;61395;-76
2022/05/02 12:03:18;;;;;;;17.10;7.00;;;;;;;25.02;27.54;98889.45;104285;1279;61302;-77
2022/05/02 12:05:55;;;;;;;6.30;5.80;;;;;;;25.02;27.13;98880.68;104378;1280;76445;-76
2022/05/02 12:08:44;;;;;;;6.40;5.80;;;;;;;25.06;27.13;98877.52;104425;1279;69472;-76
2022/05/02 12:11:13;;;;;;;5.50;5.00;;;;;;;25.06;26.92;98879.74;104609;1271;73699;-75